Slater, South Carolina
Current Conditions -  °F | °C
As of 12:53 PM on Monday 24 Nov 2014 (Local Time) from KGMU Reporting Station
Scattered Clouds Scattered Clouds  
Wind Chill: 21°   Ceiling: Unl
Heat Index: 21°   Visibility: 10mi
Dew Point: 13°   Wind: 14mph
Humidity: 61%   Direction: 220°SW
Pressure: 29.8"   Gusts: NA
Location:  35.03°N, 82.5°W
Report Text: KGMU 241753Z 22012KT 10SM SCT026 21/13 A2980 RMK AO2 SLP084 T02110133 10211 20156 58006
Loading
Personal Weather Stations






























Interactive Weather Map New forecast layout! Learn more

10-Day Weather Forecast

Advertisements
Track Severe Weather on mobile